createdAt,value
2017-09-26T00:00:28.644Z,0
2017-09-26T00:01:40.832Z,0
2017-09-26T00:02:53.309Z,0
2017-09-26T00:04:05.781Z,0
2017-09-26T00:05:17.952Z,0
2017-09-26T00:06:30.448Z,0
2017-09-26T00:07:42.943Z,0
2017-09-26T00:08:55.115Z,0
2017-09-26T00:10:07.602Z,0
2017-09-26T00:11:20.122Z,0
2017-09-26T00:12:32.318Z,0
2017-09-26T00:13:44.188Z,0
2017-09-26T00:14:56.693Z,0
2017-09-26T00:16:09.187Z,0
2017-09-26T00:17:21.359Z,0
2017-09-26T00:18:33.553Z,0
2017-09-26T00:19:46.028Z,0
2017-09-26T00:20:58.221Z,0
2017-09-26T00:22:10.093Z,0
2017-09-26T00:23:21.991Z,0
2017-09-26T00:24:34.183Z,0
2017-09-26T00:25:46.696Z,0
2017-09-26T00:26:58.900Z,0
2017-09-26T00:28:11.399Z,0
2017-09-26T00:29:23.896Z,0
2017-09-26T00:30:36.411Z,0
2017-09-26T00:31:48.909Z,0
2017-09-26T00:33:01.108Z,0
2017-09-26T00:34:13.299Z,0
2017-09-26T00:35:25.819Z,0
2017-09-26T00:36:38.315Z,0
2017-09-26T00:37:50.512Z,0
2017-09-26T00:39:02.706Z,0
2017-09-26T00:40:15.454Z,0
2017-09-26T00:41:27.947Z,0
2017-09-26T00:42:39.842Z,0
2017-09-26T00:43:52.038Z,0
2017-09-26T00:45:04.233Z,0
2017-09-26T00:46:16.404Z,0
2017-09-26T00:47:28.892Z,0
2017-09-26T00:48:41.095Z,0
2017-09-26T00:49:52.991Z,0
2017-09-26T00:51:05.187Z,0
2017-09-26T00:52:17.656Z,0
2017-09-26T00:53:29.832Z,0
2017-09-26T00:54:42.001Z,0
2017-09-26T00:55:54.486Z,0
2017-09-26T00:57:06.682Z,0
2017-09-26T00:58:18.561Z,0
2017-09-26T00:59:31.048Z,0
2017-09-26T01:00:43.231Z,0
2017-09-26T01:01:55.422Z,0
2017-09-26T01:03:07.910Z,0
2017-09-26T01:04:20.089Z,0
2017-09-26T01:05:32.577Z,0
2017-09-26T01:06:45.056Z,0
2017-09-26T01:07:56.926Z,0
2017-09-26T01:09:09.147Z,0
2017-09-26T01:10:21.616Z,0
2017-09-26T01:11:34.105Z,0
2017-09-26T01:12:46.609Z,0
2017-09-26T01:13:59.103Z,0
2017-09-26T01:15:11.291Z,0
2017-09-26T01:16:23.470Z,0
2017-09-26T01:17:35.965Z,0
2017-09-26T01:18:48.461Z,0
2017-09-26T01:20:00.950Z,0
2017-09-26T01:21:13.146Z,0
2017-09-26T01:22:25.015Z,0
2017-09-26T01:23:37.495Z,0
2017-09-26T01:24:49.665Z,0
2017-09-26T01:26:01.836Z,0
2017-09-26T01:27:14.023Z,0
2017-09-26T01:28:26.219Z,0
2017-09-26T01:29:38.700Z,0
2017-09-26T01:30:51.193Z,0
2017-09-26T01:32:03.687Z,0
2017-09-26T01:33:16.202Z,0
2017-09-26T01:34:28.097Z,0
2017-09-26T01:35:40.294Z,0
2017-09-26T01:36:52.471Z,0
2017-09-26T01:38:04.648Z,0
2017-09-26T01:39:16.813Z,0
2017-09-26T01:40:29.300Z,0
2017-09-26T01:41:41.482Z,0
2017-09-26T01:42:53.976Z,0
2017-09-26T01:44:06.475Z,0
2017-09-26T01:45:18.641Z,0
2017-09-26T01:46:31.136Z,0
2017-09-26T01:47:43.609Z,0
2017-09-26T01:48:55.478Z,0
2017-09-26T01:50:07.670Z,0
2017-09-26T01:51:20.147Z,0
2017-09-26T01:52:32.640Z,0
2017-09-26T01:53:44.834Z,0
2017-09-26T01:54:57.331Z,0
2017-09-26T01:56:09.800Z,0
2017-09-26T01:57:21.689Z,0
2017-09-26T01:58:34.170Z,0
2017-09-26T01:59:46.639Z,0
2017-09-26T02:00:58.826Z,0
2017-09-26T02:02:11.004Z,0
2017-09-26T02:03:23.176Z,0
2017-09-26T02:04:35.671Z,0
2017-09-26T02:05:47.843Z,0
2017-09-26T02:06:59.715Z,0
2017-09-26T02:08:12.200Z,0
2017-09-26T02:09:24.379Z,0
2017-09-26T02:10:36.567Z,0
2017-09-26T02:11:48.994Z,0
2017-09-26T02:13:01.190Z,0
2017-09-26T02:14:13.379Z,0
2017-09-26T02:15:24.949Z,0
2017-09-26T02:16:37.152Z,0
2017-09-26T02:17:49.328Z,0
2017-09-26T02:19:01.821Z,0
2017-09-26T02:20:14.289Z,0
2017-09-26T02:21:26.177Z,0
2017-09-26T02:22:38.631Z,0
2017-09-26T02:23:51.119Z,0
2017-09-26T02:25:03.598Z,0
2017-09-26T02:26:15.787Z,0
2017-09-26T02:27:28.289Z,0
2017-09-26T02:28:40.777Z,0
2017-09-26T02:29:53.272Z,0
2017-09-26T02:31:05.749Z,0
2017-09-26T02:32:17.922Z,0
2017-09-26T02:33:30.392Z,0
2017-09-26T02:34:42.279Z,0
2017-09-26T02:35:54.782Z,0
2017-09-26T02:37:07.272Z,0
2017-09-26T02:38:19.451Z,0
2017-09-26T02:39:31.337Z,0
2017-09-26T02:40:43.833Z,0
2017-09-26T02:41:56.362Z,0
2017-09-26T02:43:08.531Z,0
2017-09-26T02:44:20.728Z,0
2017-09-26T02:45:33.248Z,0
2017-09-26T02:46:45.744Z,0
2017-09-26T02:47:57.939Z,0
2017-09-26T02:49:10.427Z,0
2017-09-26T02:50:22.934Z,0
2017-09-26T02:51:35.426Z,0
2017-09-26T02:52:47.897Z,0
2017-09-26T02:54:00.393Z,0
2017-09-26T02:55:12.887Z,0
2017-09-26T02:56:24.459Z,0
2017-09-26T02:57:36.931Z,0
2017-09-26T02:58:48.799Z,0
2017-09-26T03:00:01.296Z,0
2017-09-26T03:01:13.469Z,0
2017-09-26T03:02:25.965Z,0
2017-09-26T03:03:38.150Z,0
2017-09-26T03:04:50.333Z,0
2017-09-26T03:06:02.500Z,0
2017-09-26T03:07:14.686Z,0
2017-09-26T03:08:27.165Z,0
2017-09-26T03:09:39.353Z,0
2017-09-26T03:10:51.832Z,0
2017-09-26T03:12:04.320Z,0
2017-09-26T03:13:16.498Z,0
2017-09-26T03:14:28.968Z,0
2017-09-26T03:15:41.465Z,0
2017-09-26T03:16:53.638Z,0
2017-09-26T03:18:05.841Z,0
2017-09-26T03:19:17.726Z,0
2017-09-26T03:20:29.914Z,0
2017-09-26T03:21:42.442Z,0
2017-09-26T03:22:54.614Z,0
2017-09-26T03:24:07.108Z,0
2017-09-26T03:25:19.305Z,0
2017-09-26T03:26:31.499Z,0
2017-09-26T03:27:43.671Z,0
2017-09-26T03:28:56.166Z,0
2017-09-26T03:30:08.666Z,0
2017-09-26T03:31:20.850Z,0
2017-09-26T03:32:33.346Z,0
2017-09-26T03:33:45.224Z,0
2017-09-26T03:34:57.712Z,0
2017-09-26T03:36:09.892Z,0
2017-09-26T03:37:21.785Z,0
2017-09-26T03:38:34.524Z,0
2017-09-26T03:39:46.708Z,0
2017-09-26T03:40:59.198Z,0
2017-09-26T03:42:11.686Z,0
2017-09-26T03:43:23.589Z,0
2017-09-26T03:44:35.759Z,0
2017-09-26T03:45:48.247Z,0
2017-09-26T03:47:00.443Z,0
2017-09-26T03:48:12.639Z,0
2017-09-26T03:49:24.817Z,0
2017-09-26T03:50:36.987Z,0
2017-09-26T03:51:49.505Z,0
2017-09-26T03:53:01.997Z,0
2017-09-26T03:54:14.174Z,0
2017-09-26T03:55:26.364Z,0
2017-09-26T03:56:38.866Z,0
2017-09-26T03:57:51.354Z,0
2017-09-26T03:59:03.549Z,0
2017-09-26T04:00:15.981Z,0
2017-09-26T04:01:28.174Z,0
2017-09-26T04:02:40.662Z,0
2017-09-26T04:03:53.140Z,0
2017-09-26T04:05:05.636Z,0
2017-09-26T04:06:17.823Z,0
2017-09-26T04:07:30.319Z,0
2017-09-26T04:08:42.801Z,0
2017-09-26T04:09:55.285Z,0
2017-09-26T04:11:07.171Z,0
2017-09-26T04:12:19.033Z,0
2017-09-26T04:13:30.606Z,0
2017-09-26T04:14:42.792Z,0
2017-09-26T04:15:55.270Z,0
2017-09-26T04:17:07.468Z,0
2017-09-26T04:18:19.642Z,0
2017-09-26T04:19:31.827Z,0
2017-09-26T04:20:44.305Z,0
2017-09-26T04:21:56.775Z,0
2017-09-26T04:23:08.962Z,0
2017-09-26T04:24:21.158Z,0
2017-09-26T04:25:33.637Z,0
2017-09-26T04:26:45.808Z,0
2017-09-26T04:27:58.305Z,0
2017-09-26T04:29:09.866Z,0
2017-09-26T04:30:21.745Z,0
2017-09-26T04:31:34.243Z,0
2017-09-26T04:32:46.702Z,4
2017-09-26T04:33:58.584Z,4
2017-09-26T04:35:10.777Z,4
2017-09-26T04:36:22.650Z,4
2017-09-26T04:37:35.146Z,4
2017-09-26T04:38:47.316Z,4
2017-09-26T04:39:59.810Z,8
2017-09-26T04:41:12.306Z,8
2017-09-26T04:42:24.493Z,12
2017-09-26T04:43:36.949Z,16
2017-09-26T04:44:49.436Z,20
2017-09-26T04:46:01.338Z,24
2017-09-26T04:47:13.826Z,28
2017-09-26T04:48:25.697Z,28
2017-09-26T04:49:37.900Z,36
2017-09-26T04:50:50.396Z,44
2017-09-26T04:52:02.566Z,52
2017-09-26T04:53:14.154Z,60
2017-09-26T04:54:26.658Z,80
2017-09-26T04:55:38.854Z,88
2017-09-26T04:56:50.724Z,104
2017-09-26T04:58:03.219Z,112
2017-09-26T04:59:15.708Z,116
2017-09-26T05:00:27.911Z,132
2017-09-26T05:01:40.402Z,156
2017-09-26T05:02:52.605Z,188
2017-09-26T05:04:04.790Z,200
2017-09-26T05:05:16.692Z,232
2017-09-26T05:06:29.190Z,256
2017-09-26T05:07:41.385Z,280
2017-09-26T05:08:53.881Z,352
2017-09-26T05:10:06.054Z,384
2017-09-26T05:11:17.939Z,468
2017-09-26T05:12:30.418Z,480
2017-09-26T05:13:42.606Z,536
2017-09-26T05:14:55.108Z,612
2017-09-26T05:16:07.579Z,632
2017-09-26T05:17:19.751Z,636
2017-09-26T05:18:31.923Z,668
2017-09-26T05:19:44.416Z,832
2017-09-26T05:20:56.911Z,952
2017-09-26T05:22:09.408Z,1000
2017-09-26T05:23:21.903Z,1164
2017-09-26T05:24:34.375Z,1096
2017-09-26T05:25:46.862Z,1168
2017-09-26T05:26:59.391Z,1164
2017-09-26T05:28:11.877Z,1264
2017-09-26T05:29:23.758Z,1504
2017-09-26T05:30:36.252Z,1252
2017-09-26T05:31:48.446Z,1296
2017-09-26T05:33:00.642Z,1432
2017-09-26T05:34:12.813Z,1196
2017-09-26T05:35:24.985Z,1328
2017-09-26T05:36:37.479Z,1596
2017-09-26T05:37:50.243Z,1872
2017-09-26T05:39:02.746Z,2220
2017-09-26T05:40:14.934Z,2096
2017-09-26T05:41:27.414Z,1788
2017-09-26T05:42:39.908Z,1776
2017-09-26T05:43:52.421Z,1700
2017-09-26T05:45:04.899Z,1712
2017-09-26T05:46:16.770Z,1820
2017-09-26T05:47:28.957Z,2636
2017-09-26T05:48:41.454Z,2356
2017-09-26T05:49:53.352Z,2200
2017-09-26T05:51:05.857Z,2472
2017-09-26T05:52:18.349Z,2460
2017-09-26T05:53:30.835Z,2584
2017-09-26T05:54:43.015Z,2504
2017-09-26T05:55:55.510Z,2696
2017-09-26T05:57:07.687Z,2896
2017-09-26T05:58:20.177Z,3228
2017-09-26T05:59:32.403Z,3108
2017-09-26T06:00:44.885Z,2720
2017-09-26T06:01:57.380Z,2960
2017-09-26T06:03:09.581Z,2596
2017-09-26T06:04:21.455Z,2292
2017-09-26T06:05:32.726Z,2520
2017-09-26T06:06:44.597Z,2480
2017-09-26T06:07:57.069Z,2152
2017-09-26T06:09:08.938Z,2032
2017-09-26T06:10:21.134Z,2308
2017-09-26T06:11:33.320Z,2812
2017-09-26T06:12:45.503Z,2620
2017-09-26T06:13:58.012Z,2828
2017-09-26T06:15:09.890Z,2768
2017-09-26T06:16:22.361Z,2716
2017-09-26T06:17:34.533Z,3064
2017-09-26T06:18:47.008Z,3084
2017-09-26T06:19:59.491Z,2944
2017-09-26T06:21:11.694Z,2888
2017-09-26T06:22:24.214Z,2996
2017-09-26T06:23:36.703Z,3072
2017-09-26T06:24:48.898Z,2968
2017-09-26T06:26:01.101Z,3896
2017-09-26T06:27:13.272Z,4068
2017-09-26T06:28:25.142Z,4044
2017-09-26T06:29:37.032Z,3744
2017-09-26T06:30:49.511Z,3916
2017-09-26T06:32:02.006Z,3980
2017-09-26T06:33:13.875Z,3948
2017-09-26T06:34:25.764Z,4436
2017-09-26T06:35:37.659Z,5040
2017-09-26T06:36:49.837Z,5312
2017-09-26T06:38:02.035Z,5288
2017-09-26T06:39:14.528Z,5276
2017-09-26T06:40:26.100Z,6136
2017-09-26T06:41:38.595Z,6552
2017-09-26T06:42:50.520Z,6692
2017-09-26T06:44:03.015Z,6740
2017-09-26T06:45:15.508Z,6796
2017-09-26T06:46:28.042Z,6300
2017-09-26T06:47:40.224Z,6120
2017-09-26T06:48:52.720Z,5896
2017-09-26T06:50:04.892Z,6596
2017-09-26T06:51:17.087Z,6416
2017-09-26T06:52:29.274Z,7080
2017-09-26T06:53:42.020Z,6036
2017-09-26T06:54:54.516Z,6004
2017-09-26T06:56:07.017Z,6820
2017-09-26T06:57:18.914Z,6372
2017-09-26T06:58:31.410Z,5956
2017-09-26T06:59:43.906Z,5668
2017-09-26T07:00:56.105Z,6908
2017-09-26T07:02:08.597Z,7152
2017-09-26T07:03:20.467Z,6908
2017-09-26T07:04:32.664Z,6892
2017-09-26T07:05:44.833Z,5936
2017-09-26T07:06:56.704Z,5748
2017-09-26T07:08:08.892Z,5872
2017-09-26T07:09:21.372Z,6004
2017-09-26T07:10:33.558Z,5172
2017-09-26T07:11:46.064Z,5848
2017-09-26T07:12:57.933Z,6876
2017-09-26T07:14:10.106Z,7092
2017-09-26T07:15:22.599Z,7072
2017-09-26T07:16:34.798Z,6976
2017-09-26T07:17:47.266Z,7980
2017-09-26T07:18:59.753Z,8976
2017-09-26T07:20:11.983Z,11372
2017-09-26T07:21:24.195Z,9832
2017-09-26T07:22:36.391Z,9308
2017-09-26T07:23:48.887Z,9732
2017-09-26T07:25:01.091Z,7276
2017-09-26T07:26:13.287Z,7064
2017-09-26T07:27:25.482Z,7836
2017-09-26T07:28:37.969Z,7744
2017-09-26T07:29:50.172Z,8964
2017-09-26T07:31:02.418Z,8720
2017-09-26T07:32:14.288Z,8408
2017-09-26T07:33:26.158Z,7644
2017-09-26T07:34:38.655Z,7072
2017-09-26T07:35:51.151Z,5916
2017-09-26T07:37:03.038Z,5604
2017-09-26T07:38:15.542Z,5948
2017-09-26T07:39:28.041Z,6228
2017-09-26T07:40:40.207Z,6896
2017-09-26T07:41:52.382Z,8032
2017-09-26T07:43:04.579Z,11884
2017-09-26T07:44:17.070Z,11984
2017-09-26T07:45:28.941Z,10536
2017-09-26T07:46:41.137Z,14332
2017-09-26T07:47:53.634Z,13600
2017-09-26T07:49:05.820Z,14500
2017-09-26T07:50:17.079Z,11624
2017-09-26T07:51:28.944Z,13916
2017-09-26T07:52:41.131Z,12292
2017-09-26T07:53:53.636Z,13540
2017-09-26T07:55:05.809Z,10676
2017-09-26T07:56:18.325Z,11664
2017-09-26T07:57:30.514Z,10620
2017-09-26T07:58:43.018Z,15280
2017-09-26T07:59:54.914Z,13764
2017-09-26T08:01:07.103Z,11220
2017-09-26T08:02:18.978Z,9180
2017-09-26T08:03:30.876Z,7532
2017-09-26T08:04:43.064Z,7796
2017-09-26T08:05:55.267Z,7396
2017-09-26T08:07:07.755Z,7752
2017-09-26T08:08:19.933Z,7272
2017-09-26T08:09:32.429Z,7720
2017-09-26T08:10:44.925Z,9280
2017-09-26T08:11:57.420Z,10524
2017-09-26T08:13:09.916Z,10160
2017-09-26T08:14:22.411Z,11776
2017-09-26T08:15:34.906Z,13440
2017-09-26T08:16:47.395Z,12252
2017-09-26T08:17:58.965Z,11460
2017-09-26T08:19:10.842Z,11784
2017-09-26T08:20:22.968Z,11728
2017-09-26T08:21:34.852Z,13732
2017-09-26T08:22:47.356Z,12808
2017-09-26T08:23:59.851Z,12984
2017-09-26T08:25:12.346Z,12012
2017-09-26T08:26:24.535Z,12292
2017-09-26T08:27:36.714Z,11372
2017-09-26T08:28:48.601Z,11088
2017-09-26T08:30:00.796Z,12556
2017-09-26T08:31:12.050Z,12548
2017-09-26T08:32:24.253Z,12668
2017-09-26T08:33:36.742Z,14004
2017-09-26T08:34:48.912Z,13316
2017-09-26T08:36:01.108Z,14420
2017-09-26T08:37:13.603Z,14704
2017-09-26T08:38:25.500Z,15388
2017-09-26T08:39:37.995Z,15512
2017-09-26T08:40:50.165Z,15156
2017-09-26T08:42:02.288Z,15372
2017-09-26T08:43:14.163Z,14680
2017-09-26T08:44:26.329Z,13856
2017-09-26T08:45:38.822Z,13868
2017-09-26T08:46:50.719Z,14360
2017-09-26T08:48:02.918Z,14632
2017-09-26T08:49:15.410Z,16100
2017-09-26T08:50:27.606Z,18048
2017-09-26T08:51:39.801Z,17984
2017-09-26T08:52:51.990Z,17600
2017-09-26T08:54:04.192Z,15660
2017-09-26T08:55:16.387Z,16200
2017-09-26T08:56:28.284Z,15508
2017-09-26T08:57:40.472Z,15024
2017-09-26T08:58:52.952Z,14860
2017-09-26T09:00:05.148Z,16508
2017-09-26T09:01:17.341Z,16384
2017-09-26T09:02:29.218Z,18112
2017-09-26T09:03:41.725Z,17888
2017-09-26T09:04:54.229Z,18592
2017-09-26T09:06:06.724Z,17952
2017-09-26T09:07:18.312Z,18304
2017-09-26T09:08:30.815Z,19104
2017-09-26T09:09:43.312Z,18080
2017-09-26T09:10:54.903Z,17632
2017-09-26T09:12:06.777Z,19744
2017-09-26T09:13:18.972Z,19680
2017-09-26T09:14:31.168Z,20256
2017-09-26T09:15:43.357Z,22304
2017-09-26T09:16:55.555Z,22016
2017-09-26T09:18:07.773Z,23648
2017-09-26T09:19:20.279Z,23744
2017-09-26T09:20:32.173Z,21984
2017-09-26T09:21:44.360Z,22720
2017-09-26T09:22:56.263Z,23872
2017-09-26T09:24:08.459Z,24544
2017-09-26T09:25:20.946Z,24160
2017-09-26T09:26:33.128Z,21632
2017-09-26T09:27:45.306Z,23744
2017-09-26T09:28:57.509Z,24544
2017-09-26T09:30:10.013Z,21856
2017-09-26T09:31:21.582Z,23680
2017-09-26T09:32:33.777Z,23520
2017-09-26T09:33:45.950Z,22240
2017-09-26T09:34:58.145Z,23040
2017-09-26T09:36:10.341Z,22528
2017-09-26T09:37:21.929Z,25504
2017-09-26T09:38:34.132Z,19392
2017-09-26T09:39:46.005Z,15500
2017-09-26T09:40:58.498Z,14892
2017-09-26T09:42:10.944Z,14204
2017-09-26T09:43:23.140Z,15704
2017-09-26T09:44:35.335Z,15584
2017-09-26T09:45:47.531Z,14340
2017-09-26T09:47:00.026Z,14220
2017-09-26T09:48:12.523Z,14776
2017-09-26T09:49:24.742Z,14580
2017-09-26T09:50:37.239Z,15456
2017-09-26T09:51:49.434Z,16292
2017-09-26T09:53:01.946Z,17856
2017-09-26T09:54:14.151Z,18848
2017-09-26T09:55:26.339Z,18752
2017-09-26T09:56:38.834Z,21312
2017-09-26T09:57:51.337Z,21312
2017-09-26T09:59:03.832Z,18752
2017-09-26T10:00:16.331Z,18784
2017-09-26T10:01:28.499Z,19936
2017-09-26T10:02:40.687Z,19648
2017-09-26T10:03:52.590Z,19520
2017-09-26T10:05:04.778Z,17268
2017-09-26T10:06:17.282Z,16232
2017-09-26T10:07:29.777Z,16420
2017-09-26T10:08:42.274Z,17180
2017-09-26T10:09:54.474Z,15560
2017-09-26T10:11:06.640Z,15136
2017-09-26T10:12:19.135Z,15440
2017-09-26T10:13:31.031Z,15860
2017-09-26T10:14:42.927Z,15208
2017-09-26T10:15:55.422Z,14952
2017-09-26T10:17:07.918Z,15036
2017-09-26T10:18:20.413Z,15032
2017-09-26T10:19:32.852Z,14284
2017-09-26T10:20:45.046Z,13652
2017-09-26T10:21:57.251Z,13236
2017-09-26T10:23:09.421Z,13932
2017-09-26T10:24:21.593Z,16164
2017-09-26T10:25:34.089Z,16804
2017-09-26T10:26:46.282Z,16792
2017-09-26T10:27:58.453Z,15420
2017-09-26T10:29:10.049Z,15220
2017-09-26T10:30:22.262Z,16300
2017-09-26T10:31:34.466Z,14940
2017-09-26T10:32:46.961Z,13656
2017-09-26T10:33:59.457Z,13104
2017-09-26T10:35:11.653Z,12708
2017-09-26T10:36:23.247Z,13904
2017-09-26T10:37:35.744Z,13976
2017-09-26T10:38:47.632Z,13484
2017-09-26T10:40:00.135Z,12656
2017-09-26T10:41:12.873Z,13164
2017-09-26T10:42:25.077Z,12044
2017-09-26T10:43:37.264Z,11564
2017-09-26T10:44:49.768Z,12440
2017-09-26T10:46:02.258Z,11440
2017-09-26T10:47:14.473Z,11256
2017-09-26T10:48:26.354Z,12000
2017-09-26T10:49:38.228Z,14404
2017-09-26T10:50:50.713Z,13636
2017-09-26T10:52:03.194Z,14384
2017-09-26T10:53:15.112Z,17312
2017-09-26T10:54:27.325Z,18304
2017-09-26T10:55:39.221Z,19040
2017-09-26T10:56:51.724Z,19328
2017-09-26T10:58:03.920Z,17412
2017-09-26T10:59:15.491Z,17888
2017-09-26T11:00:27.985Z,19392
2017-09-26T11:01:39.275Z,19584
2017-09-26T11:02:51.478Z,20064
2017-09-26T11:04:03.977Z,20480
2017-09-26T11:05:16.461Z,20384
2017-09-26T11:06:28.664Z,20224
2017-09-26T11:07:41.160Z,19424
2017-09-26T11:08:53.648Z,19648
2017-09-26T11:10:05.877Z,18784
2017-09-26T11:11:18.373Z,15760
2017-09-26T11:12:30.563Z,13004
2017-09-26T11:13:43.063Z,10704
2017-09-26T11:14:55.560Z,10268
2017-09-26T11:16:07.750Z,10548
2017-09-26T11:17:20.251Z,10012
2017-09-26T11:18:32.748Z,10620
2017-09-26T11:19:44.917Z,11612
2017-09-26T11:20:56.812Z,12268
2017-09-26T11:22:08.683Z,14992
2017-09-26T11:23:20.871Z,16892
2017-09-26T11:24:33.366Z,18176
2017-09-26T11:25:45.245Z,18592
2017-09-26T11:26:57.445Z,19264
2017-09-26T11:28:09.612Z,20000
2017-09-26T11:29:21.800Z,20768
2017-09-26T11:30:33.995Z,20992
2017-09-26T11:31:46.201Z,20992
2017-09-26T11:32:58.686Z,20928
2017-09-26T11:34:10.890Z,20864
2017-09-26T11:35:22.159Z,20800
2017-09-26T11:36:34.657Z,20768
2017-09-26T11:37:46.844Z,20128
2017-09-26T11:38:59.048Z,20480
2017-09-26T11:40:11.243Z,20448
2017-09-26T11:41:23.738Z,20416
2017-09-26T11:42:35.634Z,20256
2017-09-26T11:43:47.829Z,20128
2017-09-26T11:45:00.025Z,19872
2017-09-26T11:46:11.896Z,18976
2017-09-26T11:47:23.784Z,17984
2017-09-26T11:48:36.265Z,17312
2017-09-26T11:49:48.462Z,15044
2017-09-26T11:51:00.654Z,15028
2017-09-26T11:52:12.842Z,15808
2017-09-26T11:53:24.438Z,14872
2017-09-26T11:54:36.959Z,15780
2017-09-26T11:55:49.465Z,18816
2017-09-26T11:57:01.950Z,19968
2017-09-26T11:58:13.546Z,20128
2017-09-26T11:59:26.053Z,20448
2017-09-26T12:00:38.543Z,21088
2017-09-26T12:01:50.414Z,21568
2017-09-26T12:03:02.303Z,21664
2017-09-26T12:04:14.809Z,21888
2017-09-26T12:05:27.003Z,21632
2017-09-26T12:06:39.498Z,22112
2017-09-26T12:07:51.686Z,22304
2017-09-26T12:09:04.188Z,23200
2017-09-26T12:10:16.685Z,23904
2017-09-26T12:11:28.872Z,24288
2017-09-26T12:12:41.376Z,24576
2017-09-26T12:13:53.571Z,24992
2017-09-26T12:15:05.459Z,25344
2017-09-26T12:16:17.963Z,25600
2017-09-26T12:17:30.458Z,25632
2017-09-26T12:18:42.646Z,24640
2017-09-26T12:19:55.167Z,23296
2017-09-26T12:21:06.763Z,22304
2017-09-26T12:22:18.958Z,22112
2017-09-26T12:23:31.462Z,21664
2017-09-26T12:24:43.957Z,22624
2017-09-26T12:25:56.152Z,21568
2017-09-26T12:27:08.349Z,20576
2017-09-26T12:28:20.243Z,20608
2017-09-26T12:29:31.833Z,19008
2017-09-26T12:30:44.028Z,15164
2017-09-26T12:31:55.607Z,14756
2017-09-26T12:33:08.102Z,14872
2017-09-26T12:34:20.298Z,17212
2017-09-26T12:35:32.493Z,18656
2017-09-26T12:36:44.388Z,18016
2017-09-26T12:37:56.885Z,15584
2017-09-26T12:39:09.373Z,14012
2017-09-26T12:40:21.567Z,14564
2017-09-26T12:41:33.764Z,16596
2017-09-26T12:42:45.959Z,16048
2017-09-26T12:43:57.837Z,14488
2017-09-26T12:45:10.326Z,13536
2017-09-26T12:46:22.529Z,13616
2017-09-26T12:47:34.400Z,12752
2017-09-26T12:48:46.594Z,11752
2017-09-26T12:49:58.167Z,11904
2017-09-26T12:51:10.354Z,11752
2017-09-26T12:52:22.250Z,10316
2017-09-26T12:53:34.131Z,9220
2017-09-26T12:54:45.998Z,8848
2017-09-26T12:55:57.869Z,7812
2017-09-26T12:57:09.741Z,7648
2017-09-26T12:58:22.235Z,8040
2017-09-26T12:59:34.431Z,8800
2017-09-26T13:00:46.919Z,9744
2017-09-26T13:01:58.815Z,10304
2017-09-26T13:03:11.319Z,10464
2017-09-26T13:04:23.515Z,10544
2017-09-26T13:05:36.004Z,10688
2017-09-26T13:06:48.205Z,11036
2017-09-26T13:08:00.076Z,11492
2017-09-26T13:09:12.267Z,11832
2017-09-26T13:10:23.842Z,12168
2017-09-26T13:11:36.344Z,12592
2017-09-26T13:12:48.534Z,12924
2017-09-26T13:14:01.029Z,13064
2017-09-26T13:15:13.227Z,13252
2017-09-26T13:16:25.721Z,14100
2017-09-26T13:17:37.917Z,14332
2017-09-26T13:18:50.088Z,14728
2017-09-26T13:20:02.586Z,14660
2017-09-26T13:21:14.777Z,14464
2017-09-26T13:22:26.965Z,14712
2017-09-26T13:23:38.871Z,15272
2017-09-26T13:24:51.064Z,16128
2017-09-26T13:26:02.953Z,16956
2017-09-26T13:27:15.131Z,18336
2017-09-26T13:28:27.026Z,18528
2017-09-26T13:29:38.602Z,18304
2017-09-26T13:30:50.793Z,17792
2017-09-26T13:32:02.964Z,18080
2017-09-26T13:33:15.159Z,19328
2017-09-26T13:34:27.032Z,17696
2017-09-26T13:35:39.519Z,16136
2017-09-26T13:36:52.021Z,16336
2017-09-26T13:38:03.917Z,17032
2017-09-26T13:39:15.787Z,17792
2017-09-26T13:40:27.676Z,18560
2017-09-26T13:41:40.173Z,19776
2017-09-26T13:42:52.675Z,19776
2017-09-26T13:44:04.871Z,19520
2017-09-26T13:45:17.060Z,18720
2017-09-26T13:46:28.965Z,17920
2017-09-26T13:47:41.135Z,16580
2017-09-26T13:48:53.329Z,15460
2017-09-26T13:50:05.203Z,14484
2017-09-26T13:51:17.071Z,13540
2017-09-26T13:52:29.258Z,13136
2017-09-26T13:53:41.760Z,14272
2017-09-26T13:54:53.937Z,15272
2017-09-26T13:56:06.128Z,15600
2017-09-26T13:57:18.324Z,15652
2017-09-26T13:58:30.811Z,15368
2017-09-26T13:59:42.407Z,15252
2017-09-26T14:00:54.915Z,14900
2017-09-26T14:02:07.107Z,14468
2017-09-26T14:03:19.302Z,14240
2017-09-26T14:04:31.489Z,14028
2017-09-26T14:05:44.009Z,13884
2017-09-26T14:06:56.189Z,13696
2017-09-26T14:08:08.076Z,13448
2017-09-26T14:09:19.672Z,13428
2017-09-26T14:10:31.550Z,13596
2017-09-26T14:11:44.049Z,13864
2017-09-26T14:12:55.917Z,14088
2017-09-26T14:14:08.113Z,14400
2017-09-26T14:15:19.700Z,14588
2017-09-26T14:16:31.604Z,14772
2017-09-26T14:17:44.049Z,15048
2017-09-26T14:18:56.220Z,15244
2017-09-26T14:20:08.716Z,15644
2017-09-26T14:21:20.610Z,16176
2017-09-26T14:22:33.106Z,17120
2017-09-26T14:23:45.603Z,18208
2017-09-26T14:24:57.776Z,19104
2017-09-26T14:26:10.269Z,19648
2017-09-26T14:27:22.141Z,19968
2017-09-26T14:28:34.334Z,19808
2017-09-26T14:29:46.206Z,19392
2017-09-26T14:30:58.700Z,18752
2017-09-26T14:32:10.900Z,17728
2017-09-26T14:33:23.093Z,16704
2017-09-26T14:34:35.589Z,15744
2017-09-26T14:35:47.776Z,14352
2017-09-26T14:37:00.273Z,12964
2017-09-26T14:38:12.778Z,12052
2017-09-26T14:39:24.989Z,11512
2017-09-26T14:40:37.493Z,10424
2017-09-26T14:41:49.987Z,9352
2017-09-26T14:43:01.583Z,8556
2017-09-26T14:44:13.471Z,8196
2017-09-26T14:45:25.692Z,8688
2017-09-26T14:46:38.188Z,8684
2017-09-26T14:47:50.690Z,8876
2017-09-26T14:49:02.587Z,8428
2017-09-26T14:50:15.082Z,8312
2017-09-26T14:51:27.570Z,8240
2017-09-26T14:52:39.773Z,8144
2017-09-26T14:53:52.261Z,8052
2017-09-26T14:55:04.765Z,7296
2017-09-26T14:56:16.653Z,7260
2017-09-26T14:57:28.856Z,6872
2017-09-26T14:58:40.728Z,6776
2017-09-26T14:59:53.222Z,6708
2017-09-26T15:01:05.368Z,6816
2017-09-26T15:02:17.555Z,5900
2017-09-26T15:03:29.739Z,5900
2017-09-26T15:04:41.907Z,6016
2017-09-26T15:05:54.100Z,6124
2017-09-26T15:07:06.297Z,6180
2017-09-26T15:08:18.185Z,6196
2017-09-26T15:09:30.686Z,5880
2017-09-26T15:10:43.195Z,5608
2017-09-26T15:11:55.409Z,5244
2017-09-26T15:13:07.292Z,5148
2017-09-26T15:14:19.189Z,5072
2017-09-26T15:15:31.091Z,4928
2017-09-26T15:16:43.579Z,5296
2017-09-26T15:17:56.074Z,5356
2017-09-26T15:19:07.652Z,5632
2017-09-26T15:20:19.840Z,6044
2017-09-26T15:21:32.344Z,6644
2017-09-26T15:22:44.542Z,6896
2017-09-26T15:23:56.709Z,5952
2017-09-26T15:25:09.214Z,5832
2017-09-26T15:26:21.402Z,4996
2017-09-26T15:27:33.922Z,5076
2017-09-26T15:28:46.419Z,4564
2017-09-26T15:29:58.915Z,4020
2017-09-26T15:31:11.109Z,3876
2017-09-26T15:32:22.997Z,3928
2017-09-26T15:33:35.201Z,4340
2017-09-26T15:34:47.072Z,4496
2017-09-26T15:35:59.259Z,4072
2017-09-26T15:37:11.763Z,4168
2017-09-26T15:38:23.650Z,4424
2017-09-26T15:39:35.529Z,4784
2017-09-26T15:40:47.725Z,4980
2017-09-26T15:41:59.638Z,5032
2017-09-26T15:43:11.533Z,5056
2017-09-26T15:44:24.286Z,5016
2017-09-26T15:45:36.773Z,4776
2017-09-26T15:46:48.671Z,4440
2017-09-26T15:48:00.547Z,4100
2017-09-26T15:49:12.746Z,3812
2017-09-26T15:50:24.934Z,3636
2017-09-26T15:51:37.126Z,3592
2017-09-26T15:52:48.706Z,3696
2017-09-26T15:54:00.902Z,3792
2017-09-26T15:55:12.490Z,3808
2017-09-26T15:56:24.369Z,3740
2017-09-26T15:57:36.863Z,3620
2017-09-26T15:58:49.358Z,3460
2017-09-26T16:00:00.931Z,3240
2017-09-26T16:01:13.425Z,3112
2017-09-26T16:02:25.314Z,2956
2017-09-26T16:03:37.191Z,3168
2017-09-26T16:04:49.380Z,3164
2017-09-26T16:06:01.560Z,2808
2017-09-26T16:07:13.733Z,2564
2017-09-26T16:08:25.925Z,2428
2017-09-26T16:09:38.113Z,1932
2017-09-26T16:10:50.316Z,1884
2017-09-26T16:12:01.914Z,1772
2017-09-26T16:13:14.085Z,1760
2017-09-26T16:14:26.255Z,1748
2017-09-26T16:15:38.466Z,1668
2017-09-26T16:16:50.969Z,1600
2017-09-26T16:18:03.466Z,1596